Time;durP1;ratioP1;P1;durP2;ratioP2;P2;SDS_P1;SDS_P2;PMS_P1;PMS_P2;Temp;Humidity;BMP_temperature;BMP_pressure;BME280_temperature;BME280_humidity;BME280_pressure;Samples;Min_cycle;Max_cycle;Signal;HPM_P1;HPM_P2
2021/12/09 00:02:01;;;;;;;36.65;17.08;;;;;;;-5.95;71.32;100281.81;5041356;28;20528;-49
2021/12/09 00:04:30;;;;;;;37.78;18.90;;;;;;;-5.92;71.20;100271.72;5044686;28;20109;-50
2021/12/09 00:06:59;;;;;;;42.72;20.65;;;;;;;-5.93;71.27;100264.88;5033306;28;20086;-51
2021/12/09 00:09:24;;;;;;;33.95;15.70;;;;;;;-5.84;70.82;100266.91;5051341;28;20133;-48
2021/12/09 00:11:50;;;;;;;39.60;17.85;;;;;;;-5.77;70.64;100258.69;5045090;28;20495;-49
2021/12/09 00:14:21;;;;;;;45.38;19.65;;;;;;;-5.77;70.52;100267.22;5038546;28;20038;-51
2021/12/09 00:16:50;;;;;;;50.85;21.33;;;;;;;-5.90;70.82;100262.41;5051896;28;20404;-51
2021/12/09 00:19:16;;;;;;;47.75;20.35;;;;;;;-5.85;70.88;100260.91;5042429;28;20029;-51
2021/12/09 00:21:42;;;;;;;40.97;18.60;;;;;;;-5.82;70.84;100260.19;5035058;28;20033;-48
2021/12/09 00:24:09;;;;;;;48.78;21.88;;;;;;;-5.83;70.88;100261.84;5035217;28;20056;-51
2021/12/09 00:26:35;;;;;;;38.90;16.83;;;;;;;-5.80;70.68;100256.00;5031742;28;20480;-48
2021/12/09 00:29:00;;;;;;;34.38;17.52;;;;;;;-5.77;70.44;100245.88;5031899;28;20472;-50
2021/12/09 00:31:26;;;;;;;33.20;17.25;;;;;;;-5.81;70.41;100247.44;5033241;28;20044;-49
2021/12/09 00:33:52;;;;;;;30.23;14.65;;;;;;;-5.79;70.48;100248.34;5041803;28;20090;-49
2021/12/09 00:36:27;;;;;;;27.33;13.80;;;;;;;-5.87;70.69;100252.28;5032890;28;20107;-49
2021/12/09 00:38:56;;;;;;;25.75;12.32;;;;;;;-5.98;70.50;100245.91;5040063;28;20033;-49
2021/12/09 00:41:23;;;;;;;29.77;13.80;;;;;;;-5.92;70.58;100243.59;5017437;28;20391;-50
2021/12/09 00:43:49;;;;;;;25.27;12.07;;;;;;;-5.92;70.37;100241.03;5015260;28;20037;-51
2021/12/09 00:46:14;;;;;;;27.23;11.45;;;;;;;-5.98;70.46;100241.66;5031512;28;20059;-48
2021/12/09 00:48:40;;;;;;;28.88;13.02;;;;;;;-6.18;71.07;100249.25;5048611;28;20037;-51
2021/12/09 00:51:07;;;;;;;30.60;13.18;;;;;;;-6.19;71.24;100245.84;5052543;28;20025;-50
2021/12/09 00:53:34;;;;;;;27.08;10.90;;;;;;;-6.17;71.31;100245.94;5050126;28;20079;-48
2021/12/09 00:55:59;;;;;;;21.00;10.25;;;;;;;-6.22;71.37;100240.63;5031646;28;20055;-49
2021/12/09 00:58:25;;;;;;;28.00;12.50;;;;;;;-6.14;71.25;100235.81;5035712;28;20025;-48
2021/12/09 01:00:50;;;;;;;22.73;10.18;;;;;;;-6.12;71.26;100245.31;5033808;28;20488;-51
2021/12/09 01:03:17;;;;;;;24.95;11.88;;;;;;;-6.12;71.02;100231.63;5036204;28;20029;-50
2021/12/09 01:05:44;;;;;;;27.08;12.40;;;;;;;-6.18;70.88;100237.38;5050064;28;20059;-48
2021/12/09 01:08:11;;;;;;;22.40;10.85;;;;;;;-6.16;71.17;100232.31;5055601;28;20029;-49
2021/12/09 01:10:37;;;;;;;25.77;10.32;;;;;;;-6.12;71.18;100232.50;5038164;28;20072;-49
2021/12/09 01:13:03;;;;;;;21.40;10.15;;;;;;;-6.07;71.09;100225.91;5049197;28;20099;-50
2021/12/09 01:15:29;;;;;;;25.58;11.90;;;;;;;-6.04;70.95;100212.38;5034873;28;20033;-50
2021/12/09 01:17:55;;;;;;;21.48;10.60;;;;;;;-6.03;70.83;100207.31;5034931;28;20038;-51
2021/12/09 01:20:25;;;;;;;25.52;11.35;;;;;;;-5.95;70.67;100205.94;5036425;28;20033;-48
2021/12/09 01:22:55;;;;;;;21.52;10.55;;;;;;;-5.98;70.79;100204.97;5018730;28;20091;-49
2021/12/09 01:25:23;;;;;;;24.83;11.25;;;;;;;-5.98;70.99;100199.84;5042748;28;20525;-49
2021/12/09 01:27:51;;;;;;;22.88;10.43;;;;;;;-5.98;71.01;100202.41;5054427;28;20029;-51
2021/12/09 01:30:19;;;;;;;21.85;10.60;;;;;;;-5.90;70.66;100202.66;5054674;28;20044;-49
2021/12/09 01:32:51;;;;;;;23.30;11.55;;;;;;;-5.91;70.53;100204.34;5054158;28;20165;-48
2021/12/09 01:35:27;;;;;;;23.35;11.27;;;;;;;-6.07;70.78;100191.78;5051773;28;20082;-50
2021/12/09 01:38:02;;;;;;;23.50;12.38;;;;;;;-6.04;70.88;100190.22;5034672;28;20787;-49
2021/12/09 01:40:29;;;;;;;18.95;9.75;;;;;;;-5.93;70.63;100177.88;5044342;28;20504;-49
2021/12/09 01:42:56;;;;;;;19.67;10.80;;;;;;;-5.86;70.34;100182.41;5053964;28;20033;-48
2021/12/09 01:45:22;;;;;;;25.48;12.57;;;;;;;-5.70;70.01;100171.97;5028233;28;20038;-50
2021/12/09 01:47:48;;;;;;;23.85;11.52;;;;;;;-5.60;69.64;100172.34;5035868;28;20087;-48
2021/12/09 01:50:15;;;;;;;21.45;11.52;;;;;;;-5.44;69.09;100172.13;5021905;28;20037;-48
2021/12/09 01:52:41;;;;;;;22.42;12.30;;;;;;;-5.45;68.76;100184.06;5043829;28;20044;-50
2021/12/09 01:55:09;;;;;;;22.05;10.63;;;;;;;-5.35;68.69;100185.28;5017739;28;20473;-49
2021/12/09 01:57:35;;;;;;;23.92;10.48;;;;;;;-5.22;68.41;100182.38;5051584;28;20039;-50
2021/12/09 02:00:04;;;;;;;23.25;11.68;;;;;;;-5.20;68.20;100170.50;5052494;28;20033;-47
2021/12/09 02:02:29;;;;;;;28.38;13.40;;;;;;;-5.06;67.90;100165.91;5037063;28;20045;-48
2021/12/09 02:04:55;;;;;;;25.60;12.65;;;;;;;-4.87;67.52;100175.13;5054645;28;20039;-48
2021/12/09 02:07:20;;;;;;;23.20;11.55;;;;;;;-4.71;67.16;100171.44;5055178;28;20111;-50
2021/12/09 02:09:46;;;;;;;18.67;10.18;;;;;;;-4.55;66.77;100175.41;5051681;28;20491;-51
2021/12/09 02:12:11;;;;;;;18.90;10.02;;;;;;;-4.40;66.23;100178.53;5006320;28;20041;-52
2021/12/09 02:14:43;;;;;;;17.85;9.25;;;;;;;-4.37;65.90;100165.81;5047222;28;20551;-50
2021/12/09 02:17:11;;;;;;;16.67;8.57;;;;;;;-4.33;65.82;100165.09;5044364;28;20053;-49
2021/12/09 02:19:41;;;;;;;16.17;7.95;;;;;;;-4.18;65.35;100166.47;5054766;28;20516;-49
2021/12/09 02:22:06;;;;;;;14.57;6.97;;;;;;;-4.10;65.37;100162.47;5054834;28;20094;-49
2021/12/09 02:24:32;;;;;;;13.00;6.95;;;;;;;-4.04;65.14;100158.38;5052570;28;20053;-49
2021/12/09 02:26:58;;;;;;;14.25;6.28;;;;;;;-4.00;65.09;100159.38;5055201;28;20039;-49
2021/12/09 02:29:23;;;;;;;17.52;6.95;;;;;;;-3.92;64.75;100151.91;5055221;28;20044;-50
2021/12/09 02:31:54;;;;;;;11.00;6.07;;;;;;;-3.90;64.50;100145.16;5049369;28;20462;-48
2021/12/09 02:34:19;;;;;;;10.30;5.30;;;;;;;-3.91;64.51;100158.78;5034916;28;20034;-51
2021/12/09 02:36:45;;;;;;;10.80;5.90;;;;;;;-3.89;64.35;100152.91;5033691;28;20500;-50
2021/12/09 02:39:14;;;;;;;10.63;5.90;;;;;;;-3.97;64.21;100142.38;5033680;28;20129;-49
2021/12/09 02:41:40;;;;;;;10.80;5.85;;;;;;;-4.12;64.48;100128.16;5033172;28;20482;-49
2021/12/09 02:44:09;;;;;;;11.93;5.32;;;;;;;-4.24;64.78;100124.34;5033514;28;20504;-51
2021/12/09 02:46:37;;;;;;;10.75;5.65;;;;;;;-4.49;65.23;100127.78;5034660;28;20029;-50
2021/12/09 02:49:13;;;;;;;9.65;5.40;;;;;;;-4.62;65.77;100135.03;5016999;28;20030;-49
2021/12/09 02:51:39;;;;;;;9.82;5.13;;;;;;;-4.74;66.00;100133.75;5040134;28;20120;-48
2021/12/09 02:54:08;;;;;;;10.55;5.45;;;;;;;-4.81;66.32;100130.91;5053461;28;20032;-50
2021/12/09 02:56:34;;;;;;;10.20;5.15;;;;;;;-4.85;66.69;100127.38;5054009;28;20476;-50
2021/12/09 02:59:00;;;;;;;11.77;5.50;;;;;;;-4.92;66.66;100135.66;5052675;28;20037;-50
2021/12/09 03:01:29;;;;;;;11.77;5.55;;;;;;;-4.91;66.69;100126.28;5054170;28;20116;-49
2021/12/09 03:03:59;;;;;;;9.00;4.95;;;;;;;-4.93;66.89;100123.66;5050284;28;20075;-50
2021/12/09 03:06:43;;;;;;;8.63;5.03;;;;;;;-4.87;66.46;100123.00;5017460;28;20056;-54
2021/12/09 03:09:13;;;;;;;8.18;4.57;;;;;;;-4.79;66.45;100127.59;5032842;28;20091;-51
2021/12/09 03:11:40;;;;;;;11.35;5.60;;;;;;;-4.75;66.64;100124.34;5034239;28;20052;-48
2021/12/09 03:14:06;;;;;;;11.05;5.43;;;;;;;-4.65;66.54;100124.66;5032760;28;20558;-52
2021/12/09 03:16:32;;;;;;;8.77;5.40;;;;;;;-4.58;66.27;100108.66;5051996;28;20067;-50
2021/12/09 03:19:03;;;;;;;14.32;6.70;;;;;;;-4.57;66.40;100108.72;5051771;28;20044;-51
2021/12/09 03:21:49;;;;;;;12.45;6.40;;;;;;;-4.65;65.96;100105.00;5054105;28;20037;-48
2021/12/09 03:24:17;;;;;;;10.88;5.53;;;;;;;-4.46;66.06;100103.97;5036387;28;20053;-51
2021/12/09 03:26:56;;;;;;;12.68;6.28;;;;;;;-4.44;65.43;100110.00;5033819;28;20227;-50
2021/12/09 03:29:24;;;;;;;14.25;6.25;;;;;;;-4.26;65.70;100105.50;5033886;28;20033;-50
2021/12/09 03:31:51;;;;;;;10.73;5.70;;;;;;;-4.10;65.42;100117.13;5032651;28;20033;-52
2021/12/09 03:34:19;;;;;;;9.90;5.43;;;;;;;-4.00;64.91;100115.72;5033806;28;20031;-49
2021/12/09 03:36:48;;;;;;;8.70;5.00;;;;;;;-3.89;64.77;100116.09;5048406;28;20147;-50
2021/12/09 03:39:18;;;;;;;12.93;6.57;;;;;;;-3.92;64.60;100123.69;5052348;28;20033;-49
2021/12/09 03:41:46;;;;;;;11.50;6.70;;;;;;;-3.77;64.61;100130.19;5052194;28;20029;-49
2021/12/09 03:44:11;;;;;;;11.38;5.65;;;;;;;-3.76;64.30;100119.06;5052323;28;20036;-51
2021/12/09 03:46:38;;;;;;;10.93;5.55;;;;;;;-3.69;64.00;100119.28;5044655;28;20523;-50
2021/12/09 03:49:04;;;;;;;10.30;5.38;;;;;;;-3.65;64.18;100121.13;5032240;28;20041;-49
2021/12/09 03:51:30;;;;;;;9.75;5.70;;;;;;;-3.58;64.26;100108.53;5033664;28;20125;-50
2021/12/09 03:53:56;;;;;;;9.77;5.28;;;;;;;-3.54;64.13;100106.94;5035153;28;20473;-49
2021/12/09 03:56:22;;;;;;;12.70;6.15;;;;;;;-3.44;63.98;100101.22;5052568;28;20136;-53
2021/12/09 03:58:47;;;;;;;11.45;5.95;;;;;;;-3.38;63.77;100111.69;5053268;28;20068;-48
2021/12/09 04:01:13;;;;;;;12.95;6.43;;;;;;;-3.39;63.72;100112.53;5052793;28;20078;-53
2021/12/09 04:03:38;;;;;;;13.38;8.32;;;;;;;-3.35;63.65;100106.66;5053432;28;20461;-50
2021/12/09 04:06:04;;;;;;;12.75;7.68;;;;;;;-3.41;63.78;100100.44;5043400;28;20460;-50
2021/12/09 04:08:29;;;;;;;12.32;7.30;;;;;;;-3.42;63.97;100103.84;5033475;28;20037;-49
2021/12/09 04:10:55;;;;;;;11.10;6.60;;;;;;;-3.48;64.13;100099.38;5033433;28;20376;-50
2021/12/09 04:13:21;;;;;;;12.73;5.80;;;;;;;-3.51;64.29;100099.28;5042781;28;20036;-50
2021/12/09 04:15:46;;;;;;;9.77;5.65;;;;;;;-3.40;64.15;100102.19;5040213;28;20041;-50
2021/12/09 04:18:12;;;;;;;11.32;6.28;;;;;;;-3.34;63.82;100107.53;5044150;28;20066;-49
2021/12/09 04:20:37;;;;;;;10.38;6.22;;;;;;;-3.36;64.00;100107.47;5051615;28;20447;-50
2021/12/09 04:23:05;;;;;;;10.98;5.80;;;;;;;-3.33;63.93;100120.41;5050173;28;20148;-49
2021/12/09 04:25:32;;;;;;;11.43;5.93;;;;;;;-3.39;64.37;100122.81;5032101;28;20133;-48
2021/12/09 04:27:58;;;;;;;11.73;5.55;;;;;;;-3.31;64.07;100118.78;5033290;28;20038;-49
2021/12/09 04:30:24;;;;;;;12.57;6.50;;;;;;;-3.35;64.25;100111.78;5033456;28;20041;-48
2021/12/09 04:32:52;;;;;;;9.93;5.43;;;;;;;-3.31;64.14;100115.31;5031980;28;20496;-50
2021/12/09 04:35:18;;;;;;;9.60;5.85;;;;;;;-3.30;64.34;100110.22;5049097;28;20033;-49
2021/12/09 04:37:44;;;;;;;12.73;7.65;;;;;;;-3.23;64.08;100112.16;5056710;28;20041;-49
2021/12/09 04:40:12;;;;;;;13.27;6.28;;;;;;;-3.27;64.11;100102.63;5055847;28;20037;-49
2021/12/09 04:42:38;;;;;;;8.90;5.28;;;;;;;-3.25;64.42;100118.94;5055185;28;20057;-49
2021/12/09 04:45:05;;;;;;;10.38;5.28;;;;;;;-3.22;64.25;100108.75;5057144;28;20048;-49
2021/12/09 04:47:31;;;;;;;10.00;5.88;;;;;;;-3.17;64.27;100084.88;5055484;28;20512;-48
2021/12/09 04:49:57;;;;;;;11.32;5.50;;;;;;;-3.21;64.59;100086.50;5046089;28;20053;-49
2021/12/09 04:52:23;;;;;;;11.25;6.60;;;;;;;-3.12;64.34;100103.88;5035368;28;20500;-50
2021/12/09 04:54:49;;;;;;;11.00;4.97;;;;;;;-3.04;64.26;100110.09;5036897;28;20500;-50
2021/12/09 04:57:15;;;;;;;10.00;5.10;;;;;;;-3.06;64.21;100098.91;5035226;28;20033;-49
2021/12/09 04:59:41;;;;;;;9.95;5.40;;;;;;;-3.05;64.48;100098.94;5035421;28;20084;-53
2021/12/09 05:02:19;;;;;;;12.18;6.00;;;;;;;-3.17;65.13;100075.47;5029666;28;20044;-50
2021/12/09 05:04:46;;;;;;;13.95;6.85;;;;;;;-3.13;65.25;100081.56;5040145;28;20056;-49
2021/12/09 05:07:12;;;;;;;17.75;6.60;;;;;;;-3.26;65.37;100075.22;5055711;28;20076;-50
2021/12/09 05:09:39;;;;;;;14.82;7.13;;;;;;;-3.30;65.28;100079.41;5055545;28;20504;-51
2021/12/09 05:12:05;;;;;;;18.65;8.15;;;;;;;-3.37;65.65;100079.16;5043549;28;20476;-50
2021/12/09 05:14:32;;;;;;;18.10;7.47;;;;;;;-3.33;65.75;100079.28;5008753;28;20127;-49
2021/12/09 05:16:57;;;;;;;20.90;8.00;;;;;;;-3.34;65.77;100097.25;5054870;28;20033;-49
2021/12/09 05:19:24;;;;;;;18.67;7.45;;;;;;;-3.33;65.88;100094.72;5055576;28;20029;-50
2021/12/09 05:21:53;;;;;;;20.08;7.40;;;;;;;-3.37;65.88;100090.31;5054765;28;20033;-50
2021/12/09 05:24:19;;;;;;;17.67;6.70;;;;;;;-3.43;66.35;100103.00;5033682;28;20057;-51
2021/12/09 05:26:50;;;;;;;22.23;7.55;;;;;;;-3.36;66.05;100098.88;5055687;28;20033;-49
2021/12/09 05:29:17;;;;;;;15.63;7.07;;;;;;;-3.42;66.49;100097.03;5054157;28;20025;-49
2021/12/09 05:34:28;;;;;;;16.40;7.43;;;;;;;-3.32;66.61;100100.72;5049293;28;20096;-52
2021/12/09 05:36:53;;;;;;;12.95;6.13;;;;;;;-3.23;66.18;100101.88;5002126;28;20042;-50
2021/12/09 05:39:19;;;;;;;14.93;7.78;;;;;;;-3.14;65.95;100102.97;5047921;28;20090;-52
2021/12/09 05:41:46;;;;;;;13.43;6.22;;;;;;;-3.06;66.21;100107.50;5047213;28;20038;-52
2021/12/09 05:44:13;;;;;;;11.50;6.57;;;;;;;-2.95;65.78;100107.81;5036298;28;20516;-51
2021/12/09 05:46:42;;;;;;;11.35;6.47;;;;;;;-2.90;65.53;100100.22;5016860;28;20124;-49
2021/12/09 05:49:09;;;;;;;10.55;6.18;;;;;;;-2.89;65.53;100102.81;5035710;28;20040;-48
2021/12/09 05:51:35;;;;;;;14.13;7.90;;;;;;;-2.85;65.56;100099.50;5034487;28;20033;-50
2021/12/09 05:54:00;;;;;;;13.57;7.50;;;;;;;-2.86;65.95;100087.50;5046689;28;20029;-48
2021/12/09 05:56:26;;;;;;;11.63;6.90;;;;;;;-2.92;66.17;100081.28;5054087;28;20037;-48
2021/12/09 05:58:52;;;;;;;11.13;6.45;;;;;;;-2.93;66.23;100085.56;5044976;28;20071;-52
2021/12/09 06:01:17;;;;;;;11.60;7.38;;;;;;;-2.92;66.55;100082.16;5035283;28;20460;-50
2021/12/09 06:03:43;;;;;;;13.32;6.22;;;;;;;-3.03;66.78;100074.19;5049614;28;20029;-50
2021/12/09 06:06:11;;;;;;;8.82;4.85;;;;;;;-2.89;66.43;100084.81;5051572;28;20057;-50
2021/12/09 06:08:39;;;;;;;11.10;5.18;;;;;;;-2.89;66.82;100084.81;5034051;28;20056;-53
2021/12/09 06:11:06;;;;;;;9.50;5.20;;;;;;;-2.91;66.82;100095.88;5038663;28;20056;-52
2021/12/09 06:13:33;;;;;;;11.05;5.38;;;;;;;-2.89;67.10;100089.97;5045177;28;20059;-52
2021/12/09 06:15:59;;;;;;;10.45;6.32;;;;;;;-2.85;67.08;100102.09;5046761;28;20123;-49
2021/12/09 06:18:25;;;;;;;12.13;6.03;;;;;;;-2.84;67.05;100101.25;5049122;28;20120;-51
2021/12/09 06:20:51;;;;;;;11.73;5.93;;;;;;;-2.84;67.50;100115.81;5044872;28;20036;-49
2021/12/09 06:23:16;;;;;;;10.68;6.40;;;;;;;-2.76;67.09;100120.31;5038633;28;20068;-48
2021/12/09 06:25:42;;;;;;;12.40;6.97;;;;;;;-2.64;67.00;100122.38;5023139;28;20084;-49
2021/12/09 06:28:08;;;;;;;12.88;7.05;;;;;;;-2.55;67.00;100114.06;5073171;28;20036;-50
2021/12/09 06:30:33;;;;;;;12.38;7.53;;;;;;;-2.46;66.80;100116.00;5070218;28;20033;-49
2021/12/09 06:32:59;;;;;;;10.60;6.32;;;;;;;-2.41;66.95;100115.28;5055013;28;20041;-48
2021/12/09 06:35:27;;;;;;;12.32;7.00;;;;;;;-2.37;66.97;100119.66;5054643;28;20048;-48
2021/12/09 06:37:55;;;;;;;13.40;6.88;;;;;;;-2.35;67.06;100115.44;5042581;28;20037;-49
2021/12/09 06:40:21;;;;;;;11.27;6.47;;;;;;;-2.28;67.16;100122.47;5037120;28;20029;-50
2021/12/09 06:42:48;;;;;;;14.20;7.65;;;;;;;-2.27;67.48;100131.09;5035423;28;20056;-51
2021/12/09 06:45:16;;;;;;;13.50;6.65;;;;;;;-2.30;67.80;100129.28;5039323;28;20038;-50
2021/12/09 06:47:43;;;;;;;10.32;6.20;;;;;;;-2.21;67.63;100112.34;5037572;28;20044;-50
2021/12/09 06:50:11;;;;;;;9.70;5.80;;;;;;;-2.22;67.49;100108.91;5049791;28;20039;-51
2021/12/09 06:52:37;;;;;;;14.07;7.97;;;;;;;-2.29;68.42;100115.59;5022610;28;20488;-54
2021/12/09 06:55:08;;;;;;;15.88;8.20;;;;;;;-2.20;68.38;100114.94;5040107;28;20032;-50
2021/12/09 06:57:33;;;;;;;12.25;6.07;;;;;;;-2.13;67.97;100111.69;5053308;28;20041;-50
2021/12/09 06:59:59;;;;;;;11.63;6.05;;;;;;;-2.11;68.20;100111.75;5052864;28;20457;-51
2021/12/09 07:02:25;;;;;;;15.88;8.40;;;;;;;-2.08;68.27;100119.53;5035047;28;20060;-52
2021/12/09 07:04:50;;;;;;;13.68;7.30;;;;;;;-2.03;67.88;100120.53;5032936;28;20040;-50
2021/12/09 07:07:16;;;;;;;11.88;7.10;;;;;;;-1.94;67.66;100119.91;5020820;28;20071;-49
2021/12/09 07:09:41;;;;;;;13.38;7.50;;;;;;;-2.01;67.63;100114.56;5034941;28;20037;-52
2021/12/09 07:12:08;;;;;;;13.90;6.57;;;;;;;-2.04;68.56;100109.34;5038078;28;20036;-51
2021/12/09 07:14:33;;;;;;;14.35;8.10;;;;;;;-1.99;68.15;100115.50;5051185;28;20365;-51
2021/12/09 07:16:59;;;;;;;11.35;6.93;;;;;;;-1.96;68.00;100109.53;5046041;28;20037;-53
2021/12/09 07:19:25;;;;;;;15.32;7.70;;;;;;;-1.98;68.08;100096.63;5032555;28;20033;-51
2021/12/09 07:21:50;;;;;;;13.63;7.45;;;;;;;-2.01;68.57;100096.56;5038733;28;20040;-53
2021/12/09 07:24:16;;;;;;;13.50;7.03;;;;;;;-1.95;68.20;100093.28;5046279;28;20171;-51
2021/12/09 07:26:41;;;;;;;13.32;7.18;;;;;;;-1.96;68.20;100085.50;5052500;28;20489;-51
2021/12/09 07:29:08;;;;;;;12.90;6.13;;;;;;;-1.94;68.19;100087.28;5051551;28;20049;-51
2021/12/09 07:31:34;;;;;;;11.45;5.80;;;;;;;-1.91;68.34;100092.50;5046149;28;20044;-50
2021/12/09 07:34:00;;;;;;;10.32;6.07;;;;;;;-1.89;68.56;100093.41;5037497;28;20091;-51
2021/12/09 07:36:26;;;;;;;12.43;6.88;;;;;;;-1.89;68.91;100089.97;5038720;28;20393;-51
2021/12/09 07:38:52;;;;;;;9.80;5.72;;;;;;;-1.84;68.64;100096.09;5037132;28;20067;-53
2021/12/09 07:41:18;;;;;;;11.63;6.38;;;;;;;-1.77;68.51;100098.84;5038935;28;20116;-52
2021/12/09 07:43:45;;;;;;;9.48;5.75;;;;;;;-1.69;68.39;100095.59;5039565;28;20038;-53
2021/12/09 07:46:11;;;;;;;15.27;8.15;;;;;;;-1.63;68.28;100106.03;5034372;28;20038;-50
2021/12/09 07:48:36;;;;;;;16.38;8.27;;;;;;;-1.52;68.30;100107.13;5036131;28;20376;-53
2021/12/09 07:51:02;;;;;;;12.73;7.60;;;;;;;-1.60;68.45;100117.25;5045093;28;20032;-52
2021/12/09 07:53:28;;;;;;;15.43;7.57;;;;;;;-1.55;68.68;100117.41;5033286;28;20029;-50
2021/12/09 07:55:54;;;;;;;13.38;8.10;;;;;;;-1.45;68.44;100126.19;5041974;28;20092;-52
2021/12/09 07:58:20;;;;;;;14.48;8.20;;;;;;;-1.42;68.26;100109.09;5021884;28;20025;-49
2021/12/09 08:00:46;;;;;;;14.38;8.20;;;;;;;-1.33;67.95;100111.88;5036387;28;20377;-50
2021/12/09 08:03:12;;;;;;;16.00;8.90;;;;;;;-1.31;68.20;100112.78;5031138;28;20042;-52
2021/12/09 08:05:40;;;;;;;15.40;8.80;;;;;;;-1.29;68.03;100110.22;5031264;28;20041;-52
2021/12/09 08:08:06;;;;;;;14.27;8.30;;;;;;;-1.33;68.33;100096.41;5031264;28;20025;-52
2021/12/09 08:10:33;;;;;;;16.27;8.32;;;;;;;-1.29;68.21;100093.03;5034555;28;20423;-51
2021/12/09 08:12:59;;;;;;;15.57;8.25;;;;;;;-1.17;67.94;100095.03;5017921;28;20064;-54
2021/12/09 08:15:28;;;;;;;17.52;8.65;;;;;;;-1.10;67.28;100101.19;5035821;28;20486;-51
2021/12/09 08:18:53;;;;;;;15.20;7.82;;;;;;;-1.02;67.30;100102.22;5035928;28;20083;-50
2021/12/09 08:20:42;;;;;;;15.25;8.98;;;;;;;-0.91;66.83;100098.16;5041733;28;20037;-51
2021/12/09 08:23:08;;;;;;;14.68;8.65;;;;;;;-0.81;67.02;100097.47;5036493;28;20041;-52
2021/12/09 08:25:33;;;;;;;15.27;9.10;;;;;;;-0.66;66.67;100089.16;5051194;28;20063;-52
2021/12/09 08:27:58;;;;;;;15.35;8.18;;;;;;;-0.59;65.91;100085.00;5048330;28;20049;-52
2021/12/09 08:30:25;;;;;;;13.98;8.07;;;;;;;-0.44;65.63;100076.66;5047239;28;20064;-50
2021/12/09 08:32:52;;;;;;;13.63;8.27;;;;;;;-0.37;65.67;100084.53;5039191;28;20037;-50
2021/12/09 08:35:19;;;;;;;15.32;8.65;;;;;;;-0.34;65.23;100075.97;5054563;28;20435;-53
2021/12/09 08:37:46;;;;;;;14.35;7.80;;;;;;;-0.25;65.30;100078.72;5055324;28;20037;-49
2021/12/09 08:40:13;;;;;;;13.07;7.80;;;;;;;-0.19;65.22;100070.22;5056814;28;20025;-49
2021/12/09 08:42:39;;;;;;;11.23;6.75;;;;;;;-0.21;65.27;100064.13;5056725;28;20064;-53
2021/12/09 08:45:08;;;;;;;11.32;7.25;;;;;;;-0.18;64.78;100059.03;5055777;28;20131;-53
2021/12/09 08:47:35;;;;;;;21.38;11.82;;;;;;;-0.40;65.30;100052.63;5055031;28;20032;-53
2021/12/09 08:50:00;;;;;;;16.58;9.45;;;;;;;-0.46;65.38;100050.81;5054554;28;20097;-52
2021/12/09 08:52:26;;;;;;;14.07;8.35;;;;;;;-0.58;65.45;100050.59;5055100;28;20484;-52
2021/12/09 08:54:51;;;;;;;16.05;8.05;;;;;;;-0.59;65.65;100064.34;5054809;28;20037;-50
2021/12/09 08:57:17;;;;;;;14.45;7.82;;;;;;;-0.58;65.57;100063.50;5054647;28;20107;-53
2021/12/09 08:59:42;;;;;;;14.55;8.40;;;;;;;-0.56;65.68;100064.38;5055967;28;20029;-51
2021/12/09 09:02:08;;;;;;;13.77;7.38;;;;;;;-0.45;65.41;100056.84;5055990;28;20476;-52
2021/12/09 09:04:33;;;;;;;11.00;6.85;;;;;;;-0.32;65.10;100066.53;5056468;28;20033;-50
2021/12/09 09:07:00;;;;;;;11.82;7.60;;;;;;;-0.26;65.21;100061.50;5056294;28;20033;-51
2021/12/09 09:09:32;;;;;;;13.23;7.85;;;;;;;-0.20;64.82;100058.13;5056340;28;20472;-53
2021/12/09 09:11:58;;;;;;;14.40;7.80;;;;;;;-0.10;64.32;100047.13;5056483;28;20040;-55
2021/12/09 09:14:23;;;;;;;15.68;8.73;;;;;;;-0.14;64.56;100050.50;5056302;28;20033;-49
2021/12/09 09:16:50;;;;;;;12.68;7.82;;;;;;;-0.17;64.54;100050.44;5056101;28;20063;-49
2021/12/09 09:19:15;;;;;;;13.25;7.68;;;;;;;-0.23;64.69;100055.53;5056764;28;20039;-49
2021/12/09 09:21:42;;;;;;;14.68;9.07;;;;;;;-0.16;64.75;100062.50;5053580;28;20538;-51
2021/12/09 09:24:08;;;;;;;13.32;8.82;;;;;;;-0.07;64.58;100075.59;5056025;28;20110;-52
2021/12/09 09:26:34;;;;;;;15.10;8.63;;;;;;;0.02;64.37;100078.31;5053986;28;20041;-48
2021/12/09 09:29:00;;;;;;;14.18;8.30;;;;;;;0.10;63.90;100074.13;5050622;28;20037;-51
2021/12/09 09:31:29;;;;;;;14.05;8.35;;;;;;;0.18;63.66;100071.66;5049714;28;20087;-52
2021/12/09 09:33:54;;;;;;;14.18;8.75;;;;;;;0.22;63.80;100066.56;5044295;28;20038;-50
2021/12/09 09:36:20;;;;;;;15.93;9.23;;;;;;;0.29;63.31;100056.34;5034728;28;20033;-53
2021/12/09 09:38:46;;;;;;;15.93;9.65;;;;;;;0.20;63.12;100060.53;5035952;28;20083;-50
2021/12/09 09:41:15;;;;;;;14.27;8.85;;;;;;;0.22;63.23;100066.56;5049076;28;20110;-49
2021/12/09 09:43:57;;;;;;;16.75;9.27;;;;;;;0.18;63.70;100064.78;5049409;28;20116;-49
2021/12/09 09:46:29;;;;;;;18.50;10.38;;;;;;;0.09;63.69;100058.63;5048918;28;20025;-51
2021/12/09 09:48:58;;;;;;;17.48;9.82;;;;;;;0.10;63.81;100055.19;5043264;28;20429;-49
2021/12/09 09:51:26;;;;;;;13.93;8.38;;;;;;;0.00;63.79;100059.34;5035656;28;20033;-52
2021/12/09 09:53:52;;;;;;;15.40;9.90;;;;;;;0.01;63.98;100065.38;5034686;28;20045;-49
2021/12/09 09:56:23;;;;;;;16.13;10.25;;;;;;;-0.03;63.99;100069.63;5034342;28;20423;-51
2021/12/09 09:58:56;;;;;;;18.45;10.68;;;;;;;-0.08;64.00;100066.97;5042162;28;20033;-50
2021/12/09 10:01:22;;;;;;;16.30;10.18;;;;;;;-0.08;64.15;100071.25;5044205;28;20412;-52
2021/12/09 10:03:52;;;;;;;21.42;11.40;;;;;;;-0.07;64.35;100073.88;5047846;28;20086;-50
2021/12/09 10:06:19;;;;;;;19.25;10.90;;;;;;;0.02;64.21;100067.97;5044960;28;20108;-54
2021/12/09 10:08:45;;;;;;;19.67;11.30;;;;;;;0.09;63.96;100067.22;5046247;28;20096;-52
2021/12/09 10:11:11;;;;;;;20.38;11.27;;;;;;;0.15;63.85;100067.31;5052209;28;20040;-54
2021/12/09 10:13:42;;;;;;;16.75;10.40;;;;;;;0.14;64.58;100063.00;5043662;28;20033;-52
2021/12/09 10:16:21;;;;;;;15.25;10.40;;;;;;;0.08;63.77;100055.16;5043262;28;20037;-54
2021/12/09 10:18:50;;;;;;;16.30;9.73;;;;;;;0.18;64.08;100049.28;5043135;28;20033;-52
2021/12/09 10:21:26;;;;;;;18.98;11.70;;;;;;;0.23;63.93;100057.09;5044246;28;20036;-50
2021/12/09 10:24:06;;;;;;;17.05;11.18;;;;;;;0.27;63.79;100047.66;5044660;28;20132;-55
2021/12/09 10:26:36;;;;;;;17.08;11.00;;;;;;;0.24;64.05;100033.00;5047307;28;20362;-51
2021/12/09 10:29:04;;;;;;;39.38;21.13;;;;;;;0.30;63.76;100035.66;5054881;28;20120;-52
2021/12/09 10:31:55;;;;;;;26.13;15.10;;;;;;;0.20;64.25;100028.63;5054093;28;20048;-51
2021/12/09 10:34:42;;;;;;;23.40;14.40;;;;;;;0.21;64.00;100020.03;5044185;28;20021;-53
2021/12/09 10:37:11;;;;;;;22.13;13.57;;;;;;;0.40;64.05;100021.13;5042262;28;20037;-50
2021/12/09 10:39:39;;;;;;;19.50;12.93;;;;;;;0.47;63.84;100026.41;5043640;28;20020;-50
2021/12/09 10:42:08;;;;;;;16.95;11.20;;;;;;;0.47;63.43;100025.56;5037437;28;20033;-52
2021/12/09 10:45:01;;;;;;;24.80;14.18;;;;;;;0.39;63.61;100022.00;5054824;28;20047;-50
2021/12/09 10:52:54;;;;;;;17.02;11.13;;;;;;;0.33;64.10;100016.75;5045702;28;20032;-53
2021/12/09 10:55:33;;;;;;;20.25;11.77;;;;;;;0.31;64.47;100019.31;5042844;28;20041;-50
2021/12/09 10:58:13;;;;;;;19.58;11.32;;;;;;;0.31;64.39;100024.47;5047105;28;20033;-53
2021/12/09 11:00:46;;;;;;;19.58;11.25;;;;;;;0.28;64.80;100002.88;5043868;28;20033;-51
2021/12/09 11:03:11;;;;;;;20.92;11.80;;;;;;;0.29;64.41;100002.06;5053891;28;20043;-52
2021/12/09 11:05:41;;;;;;;20.75;11.65;;;;;;;0.30;64.56;100011.53;5054198;28;20037;-51
2021/12/09 11:08:29;;;;;;;19.63;11.63;;;;;;;0.33;64.50;100016.75;5043767;28;20124;-54
2021/12/09 11:11:07;;;;;;;15.18;9.93;;;;;;;0.44;64.32;100047.09;5039236;28;20397;-53
2021/12/09 11:13:36;;;;;;;16.52;10.13;;;;;;;0.52;63.82;100043.72;5032378;28;20030;-54
2021/12/09 11:16:05;;;;;;;17.13;10.88;;;;;;;0.58;63.75;100018.81;5041072;28;20122;-53
2021/12/09 11:18:39;;;;;;;17.75;10.70;;;;;;;0.57;63.76;99996.41;5045542;28;20131;-52
2021/12/09 11:21:29;;;;;;;16.58;9.98;;;;;;;0.69;63.68;100012.06;5046365;28;20409;-53
2021/12/09 11:24:10;;;;;;;17.10;10.70;;;;;;;0.82;63.56;100012.22;5038182;28;20033;-55
2021/12/09 11:29:17;;;;;;;20.45;12.40;;;;;;;0.80;63.29;99965.66;5036649;28;20071;-51
2021/12/09 11:32:00;;;;;;;20.00;11.93;;;;;;;0.88;63.22;99976.09;5024144;28;20029;-52